Hlavní strana
METAR-TAF:

METAR-TAF

Letiště :

Funchal, Madeira, Portugalsko

Letiště Madeira

zeměpisná šířka: 32-41-52N, zeměpisná délka: 016-46-28W, výška: 59 m

Aktuální stav počasí

Zpráva byla vytvořena před 18 minutami, v 14:30 UTC
Severní vítr 23 kt s nárazy do 33 kt
Teplota 20°C
Vlhkost vzduchu 53%
Tlak 1021 hPa
Viditelnost 10 km a více
Skoro jasno ve výšce 1600 ft

METAR: LPMA 241430Z 36023G33KT 9999 FEW016 20/10 Q1021

Čas: 15:48 (14:48 UTC)

Předpověď počasí

Zpráva byla vytvořena před 3 hodinami a 43 minutami, v 11:05 UTC
Předpověď platná od 24 v 12 UTC do 25 v 12 UTC
Severní vítr 15 kt
Viditelnost 10 km a více
Polojasno ve výšce 1500 ft
Dočasný
od 24 v 12 UTC do 25 v 12 UTC
Severní vítr 18 kt s nárazy do 30 kt

TAF: LPMA 241105Z 2412/2512 35015KT 9999 SCT015 TEMPO 2412/2512 35018G30KT

Stav a předpovědi počasí z více než 4 000 letišť (zprávy METAR a TAF).

Červené a žluté tečky na mapě představují dostupné meteorologické stanice.

Když kurzor umístíte na tečku, zobrazí se název stanice.

Pak kliknutím zobrazíte stav a předpověď počasí.

Chcete-li změnit mapu, kliknutím na zelené tlačítko se znaménkem +mapu přiblížíte, kliknutím na zelené tlačítko se znaménkem – mapu oddálíte a kliknutím na zelené šipky přejdete na sousední mapy.


METAR-TAF: